Time;durP1;ratioP1;P1;durP2;ratioP2;P2;SDS_P1;SDS_P2;PMS_P1;PMS_P2;Temp;Humidity;BMP_temperature;BMP_pressure;BME280_temperature;BME280_humidity;BME280_pressure;Samples;Min_cycle;Max_cycle;Signal;HPM_P1;HPM_P2
2023/07/08 00:00:14;;;;;;;5.10;3.00;;;17.80;99.90;;;;;;5049582;28;20884;-64
2023/07/08 00:02:42;;;;;;;5.45;3.25;;;17.80;99.90;;;;;;5045742;28;20321;-64
2023/07/08 00:05:10;;;;;;;9.00;3.13;;;17.80;99.90;;;;;;5006272;28;20236;-64
2023/07/08 00:07:37;;;;;;;3.58;2.88;;;17.80;99.90;;;;;;5042144;28;20193;-64
2023/07/08 00:10:15;;;;;;;5.80;3.22;;;17.80;99.90;;;;;;5047271;28;20205;-64
2023/07/08 00:12:45;;;;;;;4.65;3.60;;;17.80;99.90;;;;;;5044126;28;20197;-64
2023/07/08 00:15:12;;;;;;;4.50;3.40;;;17.80;99.90;;;;;;5038511;28;20223;-65
2023/07/08 00:17:39;;;;;;;4.60;3.40;;;17.80;99.90;;;;;;5046004;28;20224;-65
2023/07/08 00:20:17;;;;;;;7.93;3.40;;;17.70;99.90;;;;;;5019768;28;20675;-64
2023/07/08 00:22:46;;;;;;;4.85;3.47;;;17.60;99.90;;;;;;5036016;28;20243;-64
2023/07/08 00:25:14;;;;;;;4.53;3.28;;;17.70;99.90;;;;;;5040969;28;20308;-64
2023/07/08 00:27:42;;;;;;;6.55;3.75;;;17.70;99.90;;;;;;5040007;28;20197;-64
2023/07/08 00:30:21;;;;;;;4.43;3.13;;;17.70;99.90;;;;;;5039476;28;20212;-65
2023/07/08 00:32:53;;;;;;;4.70;3.50;;;17.70;99.90;;;;;;5039934;28;20596;-64
2023/07/08 00:35:22;;;;;;;5.05;3.30;;;17.70;99.90;;;;;;5006618;28;20209;-64
2023/07/08 00:37:49;;;;;;;5.47;3.63;;;17.70;99.90;;;;;;5029106;28;20692;-64
2023/07/08 00:40:19;;;;;;;4.45;3.83;;;17.70;99.90;;;;;;5031551;28;20201;-64
2023/07/08 00:42:48;;;;;;;4.05;2.97;;;17.70;99.90;;;;;;5036684;28;20383;-64
2023/07/08 00:45:36;;;;;;;3.80;3.40;;;17.80;99.90;;;;;;5028917;28;20228;-65
2023/07/08 00:48:11;;;;;;;5.00;3.53;;;17.70;99.90;;;;;;5037221;28;20678;-64
2023/07/08 00:50:38;;;;;;;3.72;3.42;;;17.70;99.90;;;;;;5009035;28;20216;-64
2023/07/08 00:53:33;;;;;;;5.88;3.35;;;17.70;99.90;;;;;;5031836;28;20201;-64
2023/07/08 00:56:04;;;;;;;5.20;3.45;;;17.60;99.90;;;;;;5005338;28;20221;-65
2023/07/08 00:58:36;;;;;;;5.90;3.20;;;17.70;99.90;;;;;;5033543;28;20193;-64
2023/07/08 01:01:06;;;;;;;4.35;3.33;;;17.70;99.90;;;;;;5031054;28;20228;-65
2023/07/08 01:03:36;;;;;;;3.72;3.30;;;17.60;99.90;;;;;;5039513;28;20192;-64
2023/07/08 01:06:05;;;;;;;4.82;3.42;;;17.60;99.90;;;;;;5011047;28;20209;-65
2023/07/08 01:08:32;;;;;;;4.22;3.50;;;17.60;99.90;;;;;;5014666;28;20703;-64
2023/07/08 01:11:02;;;;;;;4.40;3.22;;;17.60;99.90;;;;;;5025044;28;20227;-64
2023/07/08 01:13:33;;;;;;;5.85;3.30;;;17.60;99.90;;;;;;5038462;28;20205;-65
2023/07/08 01:16:01;;;;;;;4.55;3.42;;;17.60;99.90;;;;;;5016502;28;20394;-64
2023/07/08 01:18:29;;;;;;;5.65;3.78;;;17.50;99.90;;;;;;5042121;28;20213;-64
2023/07/08 01:20:56;;;;;;;6.25;3.75;;;17.50;99.90;;;;;;5010312;28;20485;-64
2023/07/08 01:23:25;;;;;;;4.93;3.40;;;17.40;99.90;;;;;;5019936;28;20233;-64
2023/07/08 01:25:52;;;;;;;4.95;3.72;;;17.50;99.90;;;;;;5031058;28;20351;-65
2023/07/08 01:28:19;;;;;;;6.97;3.80;;;17.50;99.90;;;;;;5042740;28;20204;-65
2023/07/08 01:30:47;;;;;;;6.85;3.88;;;17.40;99.90;;;;;;5034258;28;20205;-64
2023/07/08 01:33:18;;;;;;;5.53;3.90;;;17.50;99.90;;;;;;5041823;28;20201;-64
2023/07/08 01:35:46;;;;;;;6.25;3.80;;;17.40;99.90;;;;;;5032423;28;20201;-65
2023/07/08 01:38:15;;;;;;;5.15;3.67;;;17.40;99.90;;;;;;5022573;28;20207;-65
2023/07/08 01:40:52;;;;;;;4.53;4.05;;;18.10;99.90;;;;;;5045732;28;20200;-64
2023/07/08 01:43:19;;;;;;;3.85;3.45;;;17.20;99.90;;;;;;5030565;28;20922;-65
2023/07/08 01:45:48;;;;;;;10.80;4.00;;;17.40;99.90;;;;;;5033869;28;20205;-63
2023/07/08 01:48:17;;;;;;;8.07;3.60;;;17.30;99.90;;;;;;5036524;28;20937;-65
2023/07/08 01:50:48;;;;;;;4.90;3.90;;;17.30;99.90;;;;;;5031488;28;20904;-64
2023/07/08 01:53:17;;;;;;;5.65;3.58;;;17.20;99.90;;;;;;5033703;28;20208;-64
2023/07/08 01:55:44;;;;;;;6.65;3.80;;;17.20;99.90;;;;;;5031150;28;20580;-64
2023/07/08 01:58:13;;;;;;;7.90;4.38;;;17.10;99.90;;;;;;5031013;28;20208;-64
2023/07/08 02:00:39;;;;;;;6.63;4.03;;;17.10;99.90;;;;;;5036653;28;20205;-64
2023/07/08 02:03:06;;;;;;;6.63;4.57;;;17.00;99.90;;;;;;5033673;28;21167;-64
2023/07/08 02:05:33;;;;;;;5.53;3.97;;;17.00;99.90;;;;;;5036621;28;20193;-65
2023/07/08 02:08:00;;;;;;;5.20;3.83;;;17.00;99.90;;;;;;5012459;28;20213;-64
2023/07/08 02:10:26;;;;;;;5.95;4.20;;;16.90;99.90;;;;;;5033357;28;20209;-64
2023/07/08 02:12:53;;;;;;;4.72;4.00;;;17.00;99.90;;;;;;5024720;28;20208;-64
2023/07/08 02:15:22;;;;;;;5.18;3.78;;;17.00;99.90;;;;;;5047840;28;20216;-64
2023/07/08 02:17:49;;;;;;;4.38;3.97;;;16.90;99.90;;;;;;5034047;28;20201;-64
2023/07/08 02:20:16;;;;;;;10.50;4.38;;;17.00;99.90;;;;;;5034040;28;20220;-64
2023/07/08 02:22:43;;;;;;;16.40;4.22;;;16.90;99.90;;;;;;5013408;28;20254;-64
2023/07/08 02:25:10;;;;;;;5.18;3.97;;;16.90;99.90;;;;;;5021139;28;20225;-64
2023/07/08 02:27:37;;;;;;;4.55;4.13;;;16.80;99.90;;;;;;5042122;28;20205;-64
2023/07/08 02:30:06;;;;;;;6.70;4.00;;;16.90;99.90;;;;;;5032652;28;20211;-64
2023/07/08 02:32:34;;;;;;;6.55;3.78;;;16.80;99.90;;;;;;5033356;28;20200;-64
2023/07/08 02:35:01;;;;;;;5.18;3.95;;;16.80;99.90;;;;;;5023242;28;20290;-64
2023/07/08 02:37:28;;;;;;;6.30;3.53;;;16.80;99.90;;;;;;5003843;28;20864;-64
2023/07/08 02:39:54;;;;;;;4.53;3.42;;;16.80;99.90;;;;;;5036430;28;20200;-64
2023/07/08 02:42:21;;;;;;;6.88;4.30;;;16.80;99.90;;;;;;5038075;28;20230;-64
2023/07/08 02:44:48;;;;;;;7.07;4.10;;;16.70;99.90;;;;;;5034721;28;20231;-64
2023/07/08 02:47:15;;;;;;;5.05;4.20;;;16.60;99.90;;;;;;5039947;28;20196;-65
2023/07/08 02:49:43;;;;;;;7.75;4.72;;;16.60;99.90;;;;;;5030695;28;20765;-64
2023/07/08 02:52:10;;;;;;;6.70;4.40;;;16.50;99.90;;;;;;5031164;28;20211;-64
2023/07/08 02:54:37;;;;;;;5.75;4.72;;;16.60;99.90;;;;;;5007003;28;21173;-65
2023/07/08 02:57:04;;;;;;;7.50;4.22;;;16.50;99.90;;;;;;5022904;28;20205;-64
2023/07/08 02:59:31;;;;;;;6.28;4.20;;;16.50;99.90;;;;;;5037323;28;20198;-65
2023/07/08 03:01:58;;;;;;;4.45;3.80;;;16.60;99.90;;;;;;5040499;28;20224;-64
2023/07/08 03:04:25;;;;;;;5.97;4.57;;;16.30;99.90;;;;;;5022372;28;21246;-64
2023/07/08 03:06:54;;;;;;;6.85;4.35;;;16.40;99.90;;;;;;5023281;28;20197;-64
2023/07/08 03:09:21;;;;;;;6.93;4.45;;;16.40;99.90;;;;;;5007757;28;20677;-64
2023/07/08 03:11:48;;;;;;;5.45;4.18;;;16.30;99.90;;;;;;5024914;28;20201;-64
2023/07/08 03:14:14;;;;;;;7.45;4.32;;;16.30;99.90;;;;;;5021873;28;20192;-64
2023/07/08 03:16:41;;;;;;;6.43;4.88;;;16.30;99.90;;;;;;5031966;28;20443;-64
2023/07/08 03:19:15;;;;;;;4.65;4.07;;;16.30;99.90;;;;;;5032738;28;20227;-64
2023/07/08 03:21:41;;;;;;;4.63;4.00;;;16.20;99.90;;;;;;5027031;28;20221;-64
2023/07/08 03:24:12;;;;;;;6.80;4.50;;;16.30;99.90;;;;;;5016406;28;20799;-64
2023/07/08 03:26:38;;;;;;;5.43;4.80;;;16.20;99.90;;;;;;5008433;28;20213;-64
2023/07/08 03:29:06;;;;;;;6.63;4.65;;;15.20;99.90;;;;;;5024722;28;20213;-64
2023/07/08 03:31:32;;;;;;;5.80;4.45;;;16.30;99.90;;;;;;5033965;28;20197;-64
2023/07/08 03:33:59;;;;;;;11.07;4.63;;;16.30;99.90;;;;;;5034181;28;20869;-64
2023/07/08 03:36:27;;;;;;;6.47;4.53;;;16.20;99.90;;;;;;5023401;28;20678;-64
2023/07/08 03:38:57;;;;;;;5.35;3.95;;;16.20;99.90;;;;;;5035387;28;20721;-64
2023/07/08 03:41:26;;;;;;;7.95;4.60;;;16.30;99.90;;;;;;4993630;28;20607;-64
2023/07/08 03:43:53;;;;;;;4.55;3.92;;;16.30;99.90;;;;;;5028171;28;20205;-64
2023/07/08 03:46:22;;;;;;;7.43;4.15;;;16.30;99.90;;;;;;5019591;28;20228;-64
2023/07/08 03:48:49;;;;;;;7.90;4.45;;;16.30;99.90;;;;;;5038445;28;20193;-64
2023/07/08 03:51:23;;;;;;;4.95;4.18;;;16.30;99.90;;;;;;5026234;28;20204;-64
2023/07/08 03:53:51;;;;;;;8.90;4.20;;;16.30;99.90;;;;;;5041261;28;20817;-64
2023/07/08 03:56:18;;;;;;;6.43;4.38;;;16.40;99.90;;;;;;4996124;28;20475;-64
2023/07/08 03:58:46;;;;;;;6.05;4.32;;;16.30;99.90;;;;;;5028141;28;20747;-64
2023/07/08 04:01:16;;;;;;;7.03;4.13;;;16.40;99.90;;;;;;5021892;28;20213;-64
2023/07/08 04:03:44;;;;;;;9.65;4.03;;;16.40;99.90;;;;;;5036920;28;20229;-64
2023/07/08 04:06:11;;;;;;;7.10;4.10;;;16.30;99.90;;;;;;5029945;28;20196;-65
2023/07/08 04:08:37;;;;;;;6.38;3.78;;;16.50;99.90;;;;;;5038323;28;20205;-64
2023/07/08 04:11:05;;;;;;;7.40;4.43;;;16.30;99.90;;;;;;5025925;28;20208;-65
2023/07/08 04:13:32;;;;;;;5.75;4.07;;;16.50;99.90;;;;;;5014073;28;20257;-64
2023/07/08 04:16:03;;;;;;;5.35;3.70;;;16.60;99.90;;;;;;5037110;28;20209;-64
2023/07/08 04:18:29;;;;;;;4.88;4.10;;;16.70;99.90;;;;;;5044537;28;20201;-64
2023/07/08 04:20:56;;;;;;;4.72;3.58;;;16.70;99.90;;;;;;5042816;28;20205;-65
2023/07/08 04:23:24;;;;;;;3.75;3.45;;;16.80;99.90;;;;;;5029711;28;20846;-65
2023/07/08 04:25:53;;;;;;;7.25;3.47;;;16.80;99.90;;;;;;5046360;28;20209;-65
2023/07/08 04:28:20;;;;;;;6.03;4.07;;;16.80;99.90;;;;;;5002474;28;20216;-64
2023/07/08 04:30:49;;;;;;;7.90;3.63;;;16.90;99.90;;;;;;5041646;28;20204;-64
2023/07/08 04:33:18;;;;;;;6.28;3.60;;;16.90;99.90;;;;;;5027413;28;20201;-64
2023/07/08 04:35:45;;;;;;;3.30;3.00;;;17.00;99.90;;;;;;5046593;28;20206;-64
2023/07/08 04:38:17;;;;;;;6.47;3.42;;;17.00;99.90;;;;;;5029327;28;20208;-64
2023/07/08 04:40:44;;;;;;;4.03;3.50;;;17.10;99.90;;;;;;5049133;28;20338;-64
2023/07/08 04:43:11;;;;;;;4.38;3.40;;;17.10;99.90;;;;;;5003848;28;20232;-64
2023/07/08 04:45:39;;;;;;;3.92;3.05;;;17.10;99.90;;;;;;5040985;28;20702;-64
2023/07/08 04:48:12;;;;;;;4.00;3.03;;;17.20;99.90;;;;;;5040503;28;20196;-64
2023/07/08 04:50:41;;;;;;;8.02;3.65;;;17.20;99.90;;;;;;5040569;28;20202;-64
2023/07/08 04:53:08;;;;;;;4.38;3.55;;;17.30;99.90;;;;;;5034300;28;20695;-65
2023/07/08 04:55:35;;;;;;;5.30;3.28;;;17.30;99.90;;;;;;5043088;28;20206;-65
2023/07/08 04:58:03;;;;;;;3.50;3.20;;;17.30;99.90;;;;;;5033158;28;20201;-64
2023/07/08 05:00:29;;;;;;;4.35;3.28;;;17.40;99.90;;;;;;5027814;28;20298;-65
2023/07/08 05:02:56;;;;;;;5.70;3.33;;;17.50;99.90;;;;;;5045015;28;20229;-64
2023/07/08 05:05:23;;;;;;;5.10;3.30;;;17.50;99.90;;;;;;5037761;28;21016;-64
2023/07/08 05:07:52;;;;;;;6.47;3.45;;;17.50;99.90;;;;;;5044735;28;20198;-64
2023/07/08 05:10:19;;;;;;;5.13;3.20;;;17.60;99.90;;;;;;5026306;28;20207;-66
2023/07/08 05:12:46;;;;;;;6.40;3.33;;;17.60;99.90;;;;;;5042977;28;20195;-65
2023/07/08 05:15:14;;;;;;;4.20;3.20;;;17.70;99.90;;;;;;5011961;28;20239;-64
2023/07/08 05:17:41;;;;;;;7.22;3.22;;;17.80;99.90;;;;;;5040435;28;20201;-64
2023/07/08 05:20:10;;;;;;;4.80;3.00;;;17.90;99.90;;;;;;5040933;28;20201;-64
2023/07/08 05:22:37;;;;;;;5.63;2.90;;;17.90;99.90;;;;;;5038152;28;20221;-64
2023/07/08 05:25:06;;;;;;;3.45;2.97;;;18.00;99.90;;;;;;5022889;28;20208;-64
2023/07/08 05:27:35;;;;;;;4.38;3.10;;;18.00;99.90;;;;;;5036190;28;20845;-64
2023/07/08 05:30:02;;;;;;;4.38;3.15;;;18.10;99.90;;;;;;5031602;28;20228;-64
2023/07/08 05:32:28;;;;;;;5.45;2.78;;;18.10;99.90;;;;;;5007925;28;20208;-64
2023/07/08 05:34:55;;;;;;;5.95;2.80;;;18.20;99.90;;;;;;5037706;28;20200;-64
2023/07/08 05:37:25;;;;;;;4.68;2.70;;;18.20;99.90;;;;;;5028097;28;20305;-64
2023/07/08 05:39:52;;;;;;;6.78;2.67;;;18.40;99.90;;;;;;5027017;28;20201;-64
2023/07/08 05:42:20;;;;;;;3.00;2.75;;;18.30;99.90;;;;;;5041718;28;20696;-64
2023/07/08 05:44:47;;;;;;;3.70;2.88;;;18.40;99.90;;;;;;5037001;28;20233;-64
2023/07/08 05:47:15;;;;;;;4.07;2.88;;;18.40;99.90;;;;;;5009809;28;20208;-65
2023/07/08 05:49:42;;;;;;;4.03;2.95;;;18.50;99.90;;;;;;5034727;28;20189;-64
2023/07/08 05:52:11;;;;;;;5.80;3.15;;;18.60;99.90;;;;;;5040697;28;20203;-64
2023/07/08 05:54:38;;;;;;;5.63;2.78;;;18.60;99.90;;;;;;5021552;28;21191;-65
2023/07/08 05:57:06;;;;;;;3.50;2.70;;;18.70;99.90;;;;;;5039805;28;20689;-64
2023/07/08 05:59:35;;;;;;;4.85;3.22;;;18.70;99.90;;;;;;5041003;28;20189;-64
2023/07/08 06:02:02;;;;;;;4.22;2.65;;;18.80;99.90;;;;;;5014374;28;20221;-64
2023/07/08 06:04:30;;;;;;;6.55;3.28;;;18.80;99.90;;;;;;5043867;28;20224;-64
2023/07/08 06:06:57;;;;;;;3.75;2.70;;;18.90;99.90;;;;;;5041386;28;20343;-64
2023/07/08 06:09:24;;;;;;;3.10;2.47;;;;;;;;;;5030520;28;20201;-64
2023/07/08 06:11:51;;;;;;;2.80;2.47;;;19.00;99.90;;;;;;5033587;28;20454;-64
2023/07/08 06:14:18;;;;;;;6.82;2.97;;;19.10;99.90;;;;;;5042773;28;20850;-65
2023/07/08 06:16:46;;;;;;;3.35;2.50;;;19.20;99.90;;;;;;5000011;28;20868;-64
2023/07/08 06:19:14;;;;;;;4.65;2.70;;;19.10;99.90;;;;;;5043957;28;20193;-64
2023/07/08 06:21:41;;;;;;;3.85;3.28;;;19.30;99.90;;;;;;5041224;28;20205;-64
2023/07/08 06:24:08;;;;;;;2.78;2.25;;;19.30;99.90;;;;;;5044815;28;20245;-65
2023/07/08 06:26:35;;;;;;;4.80;2.75;;;;;;;;;;5027599;28;20209;-65
2023/07/08 06:29:02;;;;;;;3.97;2.70;;;19.40;99.90;;;;;;5042348;28;20207;-64
2023/07/08 06:31:30;;;;;;;4.90;2.90;;;19.50;99.90;;;;;;5023368;28;20235;-65
2023/07/08 06:33:58;;;;;;;2.97;2.50;;;19.50;99.90;;;;;;5035710;28;20208;-64
2023/07/08 06:36:25;;;;;;;3.58;2.53;;;19.60;99.90;;;;;;5039931;28;20223;-65
2023/07/08 06:38:52;;;;;;;4.43;2.47;;;19.60;99.90;;;;;;5039716;28;20705;-65
2023/07/08 06:41:19;;;;;;;4.05;2.75;;;19.70;99.90;;;;;;5040860;28;20573;-65
2023/07/08 06:43:45;;;;;;;3.47;3.17;;;19.80;99.90;;;;;;5025481;28;20321;-64
2023/07/08 06:46:12;;;;;;;2.67;2.35;;;19.80;99.90;;;;;;5023307;28;20197;-64
2023/07/08 06:48:39;;;;;;;2.83;2.45;;;19.90;99.90;;;;;;5004228;28;20220;-64
2023/07/08 06:51:08;;;;;;;2.95;2.75;;;19.90;99.90;;;;;;5038071;28;20687;-64
2023/07/08 06:53:35;;;;;;;2.83;2.53;;;20.00;99.90;;;;;;5033775;28;20200;-64
2023/07/08 06:56:02;;;;;;;4.82;3.13;;;20.10;99.90;;;;;;5024533;28;20201;-65
2023/07/08 06:58:29;;;;;;;3.15;2.80;;;20.00;99.90;;;;;;5018355;28;20200;-64
2023/07/08 07:00:56;;;;;;;3.25;2.33;;;20.20;99.90;;;;;;5001760;28;21325;-64
2023/07/08 07:03:22;;;;;;;4.72;3.28;;;20.20;99.90;;;;;;4999292;28;20236;-65
2023/07/08 07:05:49;;;;;;;3.55;2.78;;;20.20;99.90;;;;;;4994521;28;21020;-65
2023/07/08 07:08:17;;;;;;;5.45;2.83;;;20.30;99.90;;;;;;5030528;28;20725;-65
2023/07/08 07:10:44;;;;;;;3.03;2.72;;;20.40;99.90;;;;;;5037147;28;20224;-65
2023/07/08 07:13:11;;;;;;;5.60;3.28;;;20.40;99.90;;;;;;5016419;28;20316;-65
2023/07/08 07:15:38;;;;;;;3.60;2.55;;;20.50;99.90;;;;;;5030905;28;20192;-64
2023/07/08 07:18:05;;;;;;;3.28;2.70;;;21.10;99.90;;;;;;5018198;28;20934;-65
2023/07/08 07:20:32;;;;;;;6.72;2.90;;;20.60;99.90;;;;;;5008093;28;20552;-65
2023/07/08 07:22:59;;;;;;;3.50;2.53;;;20.80;99.90;;;;;;5029419;28;20232;-65
2023/07/08 07:25:27;;;;;;;2.72;2.30;;;20.70;99.90;;;;;;5030714;28;20214;-64
2023/07/08 07:27:54;;;;;;;2.85;2.65;;;20.80;99.90;;;;;;5032987;28;20220;-65
2023/07/08 07:30:21;;;;;;;4.88;2.90;;;20.90;99.90;;;;;;5023164;28;20208;-64
2023/07/08 07:32:48;;;;;;;2.45;2.25;;;21.00;99.90;;;;;;5011200;28;20208;-65
2023/07/08 07:35:15;;;;;;;3.80;3.00;;;21.10;99.90;;;;;;4990128;28;20209;-64
2023/07/08 07:37:42;;;;;;;3.60;2.83;;;21.10;99.90;;;;;;5020480;28;20205;-65
2023/07/08 07:40:12;;;;;;;3.25;2.50;;;21.20;99.90;;;;;;5026702;28;20205;-65
2023/07/08 07:42:41;;;;;;;4.10;2.78;;;21.20;99.90;;;;;;5030748;28;20227;-64
2023/07/08 07:45:08;;;;;;;3.08;2.67;;;21.30;99.90;;;;;;5018579;28;20205;-64
2023/07/08 07:47:36;;;;;;;5.15;2.63;;;21.30;99.90;;;;;;5024764;28;20652;-65
2023/07/08 07:50:03;;;;;;;3.00;2.60;;;21.40;99.90;;;;;;4994625;28;20192;-65
2023/07/08 07:52:30;;;;;;;3.13;2.50;;;21.40;99.90;;;;;;5027064;28;20193;-65
2023/07/08 07:54:57;;;;;;;3.70;2.72;;;21.40;99.90;;;;;;5039577;28;20213;-65
2023/07/08 07:57:24;;;;;;;3.05;2.28;;;21.50;99.90;;;;;;5035436;28;20240;-64
2023/07/08 07:59:53;;;;;;;4.82;2.80;;;21.50;99.90;;;;;;5037108;28;20407;-65
2023/07/08 08:02:20;;;;;;;5.22;3.15;;;21.60;99.90;;;;;;4998607;28;20329;-65
2023/07/08 08:04:47;;;;;;;3.88;2.78;;;21.70;99.90;;;;;;4996101;28;20236;-65
2023/07/08 08:07:14;;;;;;;3.10;2.60;;;21.70;99.90;;;;;;4991917;28;21217;-65
2023/07/08 08:09:40;;;;;;;3.70;2.78;;;21.70;99.90;;;;;;5032998;28;20200;-65
2023/07/08 08:12:09;;;;;;;6.43;2.38;;;21.90;99.90;;;;;;5035551;28;20235;-65
2023/07/08 08:14:36;;;;;;;7.93;2.60;;;21.90;99.90;;;;;;5036019;28;20228;-64
2023/07/08 08:17:04;;;;;;;3.20;2.90;;;21.90;99.90;;;;;;5022148;28;20452;-65
2023/07/08 08:19:32;;;;;;;6.18;2.75;;;22.10;99.90;;;;;;5032582;28;20412;-65
2023/07/08 08:21:59;;;;;;;3.40;3.00;;;22.10;99.90;;;;;;4975676;28;20255;-65
2023/07/08 08:24:25;;;;;;;4.57;2.80;;;22.20;99.90;;;;;;5036883;28;20228;-65
2023/07/08 08:26:52;;;;;;;4.85;2.70;;;22.10;99.90;;;;;;5036108;28;20207;-65
2023/07/08 08:29:19;;;;;;;3.25;2.70;;;22.20;99.90;;;;;;5032409;28;20197;-65
2023/07/08 08:31:46;;;;;;;4.50;2.70;;;22.20;99.90;;;;;;5026006;28;20234;-65
2023/07/08 08:34:14;;;;;;;4.35;2.65;;;22.40;99.90;;;;;;5024698;28;20212;-65
2023/07/08 08:36:42;;;;;;;4.97;2.83;;;22.40;99.90;;;;;;5028421;28;20212;-64
2023/07/08 08:39:09;;;;;;;3.45;2.50;;;22.50;99.90;;;;;;4992999;28;20242;-65
2023/07/08 08:41:38;;;;;;;4.55;2.97;;;22.60;99.90;;;;;;5022817;28;20205;-65
2023/07/08 08:44:07;;;;;;;3.53;2.58;;;22.60;99.90;;;;;;5031663;28;20913;-65
2023/07/08 08:46:40;;;;;;;3.30;2.75;;;22.60;99.90;;;;;;5037448;28;20213;-65
2023/07/08 08:49:19;;;;;;;4.25;2.92;;;22.80;99.90;;;;;;5018361;28;20227;-65
2023/07/08 08:51:46;;;;;;;3.53;2.67;;;22.80;99.90;;;;;;5021168;28;20217;-65
2023/07/08 08:54:13;;;;;;;2.45;2.25;;;22.90;99.90;;;;;;4993033;28;20221;-63
2023/07/08 08:56:46;;;;;;;3.17;2.83;;;22.90;99.90;;;;;;5039671;28;20193;-63
2023/07/08 08:59:23;;;;;;;8.75;2.90;;;22.90;99.90;;;;;;5034906;28;20324;-64
2023/07/08 09:01:51;;;;;;;2.75;2.55;;;23.10;99.90;;;;;;5017374;28;20212;-64
2023/07/08 09:04:23;;;;;;;2.90;2.70;;;23.20;99.90;;;;;;5019897;28;20228;-63
2023/07/08 09:06:52;;;;;;;5.00;2.83;;;23.30;99.90;;;;;;5010856;28;20286;-64
2023/07/08 09:09:25;;;;;;;9.75;2.90;;;23.40;99.90;;;;;;5002074;28;20250;-66
2023/07/08 09:11:56;;;;;;;2.80;2.25;;;23.40;99.90;;;;;;5015918;28;20232;-64
2023/07/08 09:14:27;;;;;;;4.53;3.95;;;23.40;99.90;;;;;;5038130;28;20190;-64
2023/07/08 09:17:05;;;;;;;3.65;2.80;;;23.40;99.90;;;;;;5023405;28;20244;-64
2023/07/08 09:19:39;;;;;;;3.05;2.38;;;23.40;99.90;;;;;;5012173;28;20338;-64
2023/07/08 09:22:14;;;;;;;4.32;2.55;;;23.70;99.90;;;;;;5000965;28;20216;-64
2023/07/08 09:24:44;;;;;;;2.90;2.58;;;23.80;99.90;;;;;;4995890;28;20235;-65
2023/07/08 09:27:11;;;;;;;3.35;2.78;;;24.00;99.90;;;;;;5012959;28;20229;-64
2023/07/08 09:29:38;;;;;;;4.72;3.15;;;24.00;99.90;;;;;;5020134;28;20223;-64
2023/07/08 09:32:16;;;;;;;4.68;2.70;;;23.90;99.90;;;;;;5031145;28;20205;-64
2023/07/08 09:34:47;;;;;;;3.50;2.50;;;24.00;99.90;;;;;;5022527;28;20281;-64
2023/07/08 09:37:28;;;;;;;5.70;2.70;;;24.10;99.90;;;;;;5020386;28;21043;-64
2023/07/08 09:39:57;;;;;;;2.58;2.38;;;24.10;99.90;;;;;;5008363;28;20943;-64
2023/07/08 09:42:28;;;;;;;2.50;2.30;;;24.10;99.90;;;;;;5021649;28;20227;-64
2023/07/08 09:44:57;;;;;;;4.03;2.92;;;24.00;99.90;;;;;;5036764;28;20236;-64
2023/07/08 09:47:28;;;;;;;2.70;2.33;;;24.10;99.90;;;;;;5037764;28;20268;-64
2023/07/08 09:49:57;;;;;;;2.88;2.47;;;24.10;99.90;;;;;;5029544;28;20205;-64
2023/07/08 09:52:24;;;;;;;7.65;2.30;;;24.10;99.90;;;;;;5030300;28;20212;-64
2023/07/08 09:54:51;;;;;;;3.95;2.70;;;24.30;99.90;;;;;;5020833;28;21121;-64
2023/07/08 09:57:28;;;;;;;4.05;3.10;;;24.30;99.90;;;;;;5018087;28;20811;-64
2023/07/08 10:00:01;;;;;;;5.25;2.60;;;24.80;99.90;;;;;;5038179;28;20235;-64
2023/07/08 10:02:34;;;;;;;4.80;2.72;;;25.00;99.90;;;;;;5041244;28;20255;-64
2023/07/08 10:05:11;;;;;;;4.43;2.47;;;25.20;99.90;;;;;;5020747;28;20243;-64
2023/07/08 10:07:38;;;;;;;5.32;2.70;;;25.10;99.90;;;;;;5030213;28;20228;-64
2023/07/08 10:10:09;;;;;;;3.35;2.58;;;25.00;99.90;;;;;;5006560;28;20220;-64
2023/07/08 10:12:39;;;;;;;3.35;2.38;;;25.30;99.90;;;;;;5020929;28;20221;-64
2023/07/08 10:15:18;;;;;;;7.03;2.35;;;25.40;99.90;;;;;;5019714;28;20221;-64
2023/07/08 10:17:45;;;;;;;2.55;2.35;;;25.00;99.90;;;;;;5022556;28;21091;-64
2023/07/08 10:20:14;;;;;;;3.45;2.40;;;25.40;99.90;;;;;;5028160;28;20220;-64
2023/07/08 10:22:50;;;;;;;9.55;2.75;;;25.40;99.90;;;;;;5042719;28;20201;-64
2023/07/08 10:25:29;;;;;;;4.05;2.17;;;25.60;99.90;;;;;;5036043;28;20709;-64
2023/07/08 10:28:04;;;;;;;4.28;2.55;;;25.60;99.90;;;;;;5006026;28;20232;-65
2023/07/08 10:30:39;;;;;;;2.78;2.40;;;25.60;99.90;;;;;;5042820;28;20702;-65
2023/07/08 10:33:22;;;;;;;2.75;2.50;;;25.60;99.90;;;;;;5036543;28;20201;-64
2023/07/08 10:36:02;;;;;;;2.65;2.30;;;25.60;99.90;;;;;;5027884;28;20236;-64
2023/07/08 10:38:42;;;;;;;2.53;2.33;;;25.70;99.90;;;;;;5033637;28;21342;-64
2023/07/08 10:41:15;;;;;;;4.28;2.80;;;25.70;99.90;;;;;;5014735;28;20721;-64
2023/07/08 10:43:56;;;;;;;4.32;2.70;;;25.70;99.90;;;;;;5011534;28;20209;-64
2023/07/08 10:46:36;;;;;;;2.85;2.60;;;25.80;99.90;;;;;;5026013;28;20204;-65
2023/07/08 10:49:30;;;;;;;4.82;2.65;;;25.90;99.90;;;;;;5034034;28;20200;-64
2023/07/08 10:52:07;;;;;;;3.28;2.60;;;25.90;99.90;;;;;;5026575;28;20204;-64
2023/07/08 10:54:49;;;;;;;6.07;2.50;;;26.10;99.90;;;;;;5028118;28;20208;-65
2023/07/08 10:57:34;;;;;;;6.18;2.33;;;26.10;99.90;;;;;;5005578;28;22316;-64
2023/07/08 11:00:08;;;;;;;3.22;2.90;;;26.20;99.90;;;;;;5034958;28;20209;-64
2023/07/08 11:03:01;;;;;;;4.00;2.55;;;26.30;99.90;;;;;;5029534;28;20231;-65
2023/07/08 11:05:39;;;;;;;8.93;2.83;;;26.20;99.90;;;;;;5032702;28;25687;-65
2023/07/08 11:08:15;;;;;;;6.32;2.80;;;26.20;99.90;;;;;;5031209;28;20204;-64
2023/07/08 11:10:50;;;;;;;5.47;3.00;;;26.30;99.90;;;;;;5008972;28;20231;-64
2023/07/08 11:13:19;;;;;;;3.03;2.55;;;26.50;99.90;;;;;;4998674;28;20204;-65
2023/07/08 11:15:51;;;;;;;2.92;2.55;;;26.50;99.90;;;;;;5007587;28;20222;-64
2023/07/08 11:18:25;;;;;;;4.63;2.53;;;26.50;99.90;;;;;;5014174;28;20216;-64
2023/07/08 11:20:58;;;;;;;2.95;2.60;;;26.40;99.90;;;;;;5002438;28;20239;-65
2023/07/08 11:23:33;;;;;;;3.00;2.70;;;26.60;99.90;;;;;;5017698;28;20665;-65
2023/07/08 11:26:08;;;;;;;5.68;2.80;;;26.50;99.90;;;;;;5004864;28;20235;-65
2023/07/08 11:28:35;;;;;;;3.72;2.60;;;26.50;99.90;;;;;;4998440;28;20224;-65
2023/07/08 11:31:04;;;;;;;4.07;2.83;;;26.60;99.90;;;;;;5006096;28;20439;-64
2023/07/08 11:33:33;;;;;;;5.15;2.75;;;26.60;99.90;;;;;;5037574;28;20205;-65
2023/07/08 11:36:01;;;;;;;3.70;2.70;;;26.70;99.90;;;;;;5029944;28;20193;-64
2023/07/08 11:38:33;;;;;;;18.02;3.15;;;26.70;99.90;;;;;;5019962;28;20334;-65
2023/07/08 11:41:02;;;;;;;4.15;2.95;;;26.70;99.90;;;;;;5018968;28;20312;-64
2023/07/08 11:43:45;;;;;;;3.10;2.80;;;26.70;99.90;;;;;;5024611;28;20220;-64
2023/07/08 11:46:18;;;;;;;7.60;3.33;;;26.70;99.90;;;;;;5005210;28;20857;-65
2023/07/08 11:48:49;;;;;;;4.10;2.97;;;26.90;99.90;;;;;;5022548;28;20201;-65
2023/07/08 11:51:20;;;;;;;4.57;2.80;;;26.80;99.90;;;;;;5036620;28;20210;-65
2023/07/08 11:53:59;;;;;;;3.38;3.00;;;26.80;99.90;;;;;;5025367;28;20205;-65
2023/07/08 11:56:26;;;;;;;3.00;2.80;;;26.80;99.90;;;;;;5022196;28;20262;-65
2023/07/08 11:59:15;;;;;;;5.60;2.88;;;26.80;99.90;;;;;;5033746;28;20223;-64
2023/07/08 12:01:48;;;;;;;2.88;2.58;;;26.80;99.90;;;;;;5006404;28;20213;-65
2023/07/08 12:04:27;;;;;;;9.95;3.58;;;26.80;99.90;;;;;;5035336;28;20201;-65
2023/07/08 12:07:06;;;;;;;6.55;3.47;;;26.80;99.90;;;;;;5044324;28;20331;-64
2023/07/08 12:09:44;;;;;;;5.13;3.15;;;26.90;99.90;;;;;;5020692;28;20224;-65
2023/07/08 12:12:18;;;;;;;7.07;3.60;;;26.90;99.90;;;;;;5026639;28;20227;-64
2023/07/08 12:14:45;;;;;;;11.10;3.10;;;26.90;99.90;;;;;;5026577;28;20220;-64
2023/07/08 12:17:13;;;;;;;9.15;4.07;;;27.00;99.90;;;;;;4988631;28;20806;-65
2023/07/08 12:19:43;;;;;;;9.45;3.50;;;27.00;99.90;;;;;;5036486;28;20295;-64
2023/07/08 12:22:11;;;;;;;5.47;2.90;;;27.00;99.90;;;;;;5029902;28;20198;-65
2023/07/08 12:24:40;;;;;;;3.15;2.85;;;27.10;99.90;;;;;;5018904;28;20224;-64
2023/07/08 12:27:09;;;;;;;8.07;3.45;;;27.00;99.90;;;;;;5027238;28;20216;-65
2023/07/08 12:29:36;;;;;;;5.50;3.42;;;27.10;99.90;;;;;;5029553;28;20206;-64
2023/07/08 12:32:04;;;;;;;5.22;2.80;;;27.10;99.90;;;;;;5005036;28;20429;-64
2023/07/08 12:34:32;;;;;;;4.45;2.83;;;27.10;99.90;;;;;;5026418;28;20700;-64
2023/07/08 12:36:59;;;;;;;4.05;2.92;;;27.20;99.90;;;;;;5041253;28;20224;-64
2023/07/08 12:39:26;;;;;;;3.30;2.53;;;27.20;99.90;;;;;;5023966;28;20231;-64
2023/07/08 12:41:54;;;;;;;5.30;3.40;;;27.20;99.90;;;;;;5037883;28;20224;-65
2023/07/08 12:44:23;;;;;;;4.43;3.00;;;27.20;99.90;;;;;;5039632;28;20252;-65
2023/07/08 12:46:53;;;;;;;4.72;3.10;;;27.40;99.90;;;;;;5021604;28;20232;-64
2023/07/08 12:49:23;;;;;;;5.03;3.33;;;28.00;99.90;;;;;;5046841;28;20646;-65
2023/07/08 12:51:50;;;;;;;3.45;3.15;;;27.30;99.90;;;;;;5043188;28;20343;-65
2023/07/08 12:54:17;;;;;;;3.40;2.80;;;27.30;99.90;;;;;;5045829;28;20283;-65
2023/07/08 12:56:46;;;;;;;4.25;3.20;;;27.30;99.90;;;;;;5035221;28;20206;-65
2023/07/08 12:59:18;;;;;;;3.13;2.83;;;27.30;99.90;;;;;;5048152;28;21549;-65